sensor_id;sensor_type;location;lat;lon;timestamp;P1;durP1;ratioP1;P2;durP2;ratioP2
8825;SDS011;4449;50.872;4.714;2022-12-18T00:00:04;22.80;;;11.07;;
8825;SDS011;4449;50.872;4.714;2022-12-18T00:02:32;25.73;;;11.32;;
8825;SDS011;4449;50.872;4.714;2022-12-18T00:05:00;32.85;;;10.73;;
8825;SDS011;4449;50.872;4.714;2022-12-18T00:07:29;27.05;;;12.07;;
8825;SDS011;4449;50.872;4.714;2022-12-18T00:09:57;21.08;;;12.13;;
8825;SDS011;4449;50.872;4.714;2022-12-18T00:12:25;26.30;;;12.70;;
8825;SDS011;4449;50.872;4.714;2022-12-18T00:14:52;21.25;;;12.23;;
8825;SDS011;4449;50.872;4.714;2022-12-18T00:17:20;21.67;;;10.95;;
8825;SDS011;4449;50.872;4.714;2022-12-18T00:19:48;26.20;;;11.23;;
8825;SDS011;4449;50.872;4.714;2022-12-18T00:22:17;18.60;;;10.70;;
8825;SDS011;4449;50.872;4.714;2022-12-18T00:24:46;29.05;;;12.52;;
8825;SDS011;4449;50.872;4.714;2022-12-18T00:27:14;21.85;;;11.68;;
8825;SDS011;4449;50.872;4.714;2022-12-18T00:29:42;22.33;;;11.40;;
8825;SDS011;4449;50.872;4.714;2022-12-18T00:32:09;21.15;;;10.35;;
8825;SDS011;4449;50.872;4.714;2022-12-18T00:34:37;18.50;;;11.40;;
8825;SDS011;4449;50.872;4.714;2022-12-18T00:37:05;19.92;;;12.02;;
8825;SDS011;4449;50.872;4.714;2022-12-18T00:39:32;26.60;;;12.98;;
8825;SDS011;4449;50.872;4.714;2022-12-18T00:42:01;19.70;;;10.80;;
8825;SDS011;4449;50.872;4.714;2022-12-18T00:44:46;24.02;;;11.70;;
8825;SDS011;4449;50.872;4.714;2022-12-18T00:47:14;22.98;;;10.73;;
8825;SDS011;4449;50.872;4.714;2022-12-18T00:49:42;21.20;;;10.25;;
8825;SDS011;4449;50.872;4.714;2022-12-18T00:52:10;21.58;;;12.10;;
8825;SDS011;4449;50.872;4.714;2022-12-18T00:54:37;24.90;;;11.32;;
8825;SDS011;4449;50.872;4.714;2022-12-18T00:57:06;16.67;;;9.85;;
8825;SDS011;4449;50.872;4.714;2022-12-18T00:59:34;20.98;;;10.90;;
8825;SDS011;4449;50.872;4.714;2022-12-18T01:02:02;18.60;;;10.50;;
8825;SDS011;4449;50.872;4.714;2022-12-18T01:04:30;27.60;;;11.40;;
8825;SDS011;4449;50.872;4.714;2022-12-18T01:06:58;19.77;;;9.85;;
8825;SDS011;4449;50.872;4.714;2022-12-18T01:09:26;16.33;;;9.57;;
8825;SDS011;4449;50.872;4.714;2022-12-18T01:11:54;22.17;;;10.32;;
8825;SDS011;4449;50.872;4.714;2022-12-18T01:14:23;21.60;;;10.63;;
8825;SDS011;4449;50.872;4.714;2022-12-18T01:16:50;28.70;;;11.82;;
8825;SDS011;4449;50.872;4.714;2022-12-18T01:19:18;21.40;;;10.02;;
8825;SDS011;4449;50.872;4.714;2022-12-18T01:21:46;21.50;;;10.90;;
8825;SDS011;4449;50.872;4.714;2022-12-18T01:24:14;26.98;;;12.45;;
8825;SDS011;4449;50.872;4.714;2022-12-18T01:26:41;18.38;;;11.48;;
8825;SDS011;4449;50.872;4.714;2022-12-18T01:29:09;26.17;;;12.55;;
8825;SDS011;4449;50.872;4.714;2022-12-18T01:31:38;23.58;;;11.70;;
8825;SDS011;4449;50.872;4.714;2022-12-18T01:34:06;23.20;;;11.70;;
8825;SDS011;4449;50.872;4.714;2022-12-18T01:36:34;23.00;;;10.35;;
8825;SDS011;4449;50.872;4.714;2022-12-18T01:39:03;21.02;;;10.43;;
8825;SDS011;4449;50.872;4.714;2022-12-18T01:41:32;22.67;;;11.65;;
8825;SDS011;4449;50.872;4.714;2022-12-18T01:46:57;25.13;;;12.32;;
8825;SDS011;4449;50.872;4.714;2022-12-18T01:49:25;29.70;;;11.68;;
8825;SDS011;4449;50.872;4.714;2022-12-18T01:51:53;23.13;;;10.05;;
8825;SDS011;4449;50.872;4.714;2022-12-18T01:54:20;22.27;;;11.35;;
8825;SDS011;4449;50.872;4.714;2022-12-18T01:56:48;24.35;;;9.77;;
8825;SDS011;4449;50.872;4.714;2022-12-18T01:59:16;20.38;;;10.50;;
8825;SDS011;4449;50.872;4.714;2022-12-18T02:01:43;25.73;;;11.00;;
8825;SDS011;4449;50.872;4.714;2022-12-18T02:04:20;20.08;;;10.45;;
8825;SDS011;4449;50.872;4.714;2022-12-18T02:06:48;18.67;;;9.35;;
8825;SDS011;4449;50.872;4.714;2022-12-18T02:09:19;21.55;;;10.88;;
8825;SDS011;4449;50.872;4.714;2022-12-18T02:11:49;19.15;;;9.57;;
8825;SDS011;4449;50.872;4.714;2022-12-18T02:14:19;16.15;;;8.50;;
8825;SDS011;4449;50.872;4.714;2022-12-18T02:16:51;18.40;;;8.30;;
8825;SDS011;4449;50.872;4.714;2022-12-18T02:19:26;17.00;;;9.07;;
8825;SDS011;4449;50.872;4.714;2022-12-18T02:21:56;19.67;;;10.15;;
8825;SDS011;4449;50.872;4.714;2022-12-18T02:24:28;18.15;;;9.82;;
8825;SDS011;4449;50.872;4.714;2022-12-18T02:26:59;19.60;;;9.48;;
8825;SDS011;4449;50.872;4.714;2022-12-18T02:29:29;26.05;;;9.02;;
8825;SDS011;4449;50.872;4.714;2022-12-18T02:31:58;22.90;;;9.57;;
8825;SDS011;4449;50.872;4.714;2022-12-18T02:34:27;15.48;;;10.13;;
8825;SDS011;4449;50.872;4.714;2022-12-18T02:36:56;15.90;;;9.70;;
8825;SDS011;4449;50.872;4.714;2022-12-18T02:39:25;19.38;;;8.90;;
8825;SDS011;4449;50.872;4.714;2022-12-18T02:41:54;15.65;;;8.88;;
8825;SDS011;4449;50.872;4.714;2022-12-18T02:44:23;20.75;;;8.80;;
8825;SDS011;4449;50.872;4.714;2022-12-18T02:46:51;15.50;;;9.48;;
8825;SDS011;4449;50.872;4.714;2022-12-18T02:49:23;20.77;;;9.88;;
8825;SDS011;4449;50.872;4.714;2022-12-18T02:51:55;18.02;;;9.65;;
8825;SDS011;4449;50.872;4.714;2022-12-18T02:54:27;25.40;;;10.93;;
8825;SDS011;4449;50.872;4.714;2022-12-18T02:56:59;16.55;;;8.77;;
8825;SDS011;4449;50.872;4.714;2022-12-18T02:59:33;17.83;;;9.05;;
8825;SDS011;4449;50.872;4.714;2022-12-18T03:02:04;14.20;;;8.27;;
8825;SDS011;4449;50.872;4.714;2022-12-18T03:04:34;17.08;;;8.90;;
8825;SDS011;4449;50.872;4.714;2022-12-18T03:07:05;19.45;;;8.80;;
8825;SDS011;4449;50.872;4.714;2022-12-18T03:09:35;14.68;;;7.68;;
8825;SDS011;4449;50.872;4.714;2022-12-18T03:12:04;15.18;;;7.72;;
8825;SDS011;4449;50.872;4.714;2022-12-18T03:14:59;16.42;;;9.80;;
8825;SDS011;4449;50.872;4.714;2022-12-18T03:17:29;13.38;;;8.73;;
8825;SDS011;4449;50.872;4.714;2022-12-18T03:19:58;16.33;;;7.88;;
8825;SDS011;4449;50.872;4.714;2022-12-18T03:22:29;18.88;;;9.50;;
8825;SDS011;4449;50.872;4.714;2022-12-18T03:24:57;17.83;;;10.50;;
8825;SDS011;4449;50.872;4.714;2022-12-18T03:27:28;17.45;;;8.48;;
8825;SDS011;4449;50.872;4.714;2022-12-18T03:30:00;16.05;;;9.48;;
8825;SDS011;4449;50.872;4.714;2022-12-18T03:32:33;17.38;;;9.10;;
8825;SDS011;4449;50.872;4.714;2022-12-18T03:35:04;22.45;;;10.27;;
8825;SDS011;4449;50.872;4.714;2022-12-18T03:37:32;18.17;;;8.90;;
8825;SDS011;4449;50.872;4.714;2022-12-18T03:40:01;20.40;;;9.63;;
8825;SDS011;4449;50.872;4.714;2022-12-18T03:42:29;17.15;;;8.95;;
8825;SDS011;4449;50.872;4.714;2022-12-18T03:45:01;16.55;;;9.05;;
8825;SDS011;4449;50.872;4.714;2022-12-18T03:47:31;19.85;;;9.48;;
8825;SDS011;4449;50.872;4.714;2022-12-18T03:50:04;19.15;;;8.90;;
8825;SDS011;4449;50.872;4.714;2022-12-18T03:52:36;15.32;;;8.30;;
8825;SDS011;4449;50.872;4.714;2022-12-18T03:55:05;20.45;;;10.07;;
8825;SDS011;4449;50.872;4.714;2022-12-18T03:57:34;12.05;;;8.20;;
8825;SDS011;4449;50.872;4.714;2022-12-18T04:00:05;14.88;;;8.50;;
8825;SDS011;4449;50.872;4.714;2022-12-18T04:02:33;16.48;;;8.43;;
8825;SDS011;4449;50.872;4.714;2022-12-18T04:05:02;23.73;;;9.32;;
8825;SDS011;4449;50.872;4.714;2022-12-18T04:07:30;14.57;;;8.10;;
8825;SDS011;4449;50.872;4.714;2022-12-18T04:09:58;21.08;;;10.00;;
8825;SDS011;4449;50.872;4.714;2022-12-18T04:12:28;19.17;;;8.57;;
8825;SDS011;4449;50.872;4.714;2022-12-18T04:14:56;15.35;;;8.07;;
8825;SDS011;4449;50.872;4.714;2022-12-18T04:17:25;19.40;;;7.43;;
8825;SDS011;4449;50.872;4.714;2022-12-18T04:19:53;12.32;;;7.05;;
8825;SDS011;4449;50.872;4.714;2022-12-18T04:22:20;20.27;;;8.15;;
8825;SDS011;4449;50.872;4.714;2022-12-18T04:24:48;15.95;;;7.93;;
8825;SDS011;4449;50.872;4.714;2022-12-18T04:27:16;15.95;;;7.70;;
8825;SDS011;4449;50.872;4.714;2022-12-18T04:29:44;11.38;;;7.47;;
8825;SDS011;4449;50.872;4.714;2022-12-18T04:32:11;17.25;;;8.68;;
8825;SDS011;4449;50.872;4.714;2022-12-18T04:34:41;14.68;;;7.40;;
8825;SDS011;4449;50.872;4.714;2022-12-18T04:37:08;14.57;;;8.18;;
8825;SDS011;4449;50.872;4.714;2022-12-18T04:39:36;11.40;;;6.47;;
8825;SDS011;4449;50.872;4.714;2022-12-18T04:42:04;14.57;;;8.35;;
8825;SDS011;4449;50.872;4.714;2022-12-18T04:44:32;16.10;;;7.97;;
8825;SDS011;4449;50.872;4.714;2022-12-18T04:47:00;9.57;;;6.15;;
8825;SDS011;4449;50.872;4.714;2022-12-18T04:49:27;15.77;;;7.85;;
8825;SDS011;4449;50.872;4.714;2022-12-18T04:51:57;17.73;;;8.20;;
8825;SDS011;4449;50.872;4.714;2022-12-18T04:54:24;12.25;;;8.02;;
8825;SDS011;4449;50.872;4.714;2022-12-18T04:56:52;15.10;;;8.07;;
8825;SDS011;4449;50.872;4.714;2022-12-18T04:59:20;15.88;;;7.68;;
8825;SDS011;4449;50.872;4.714;2022-12-18T05:01:47;11.98;;;7.05;;
8825;SDS011;4449;50.872;4.714;2022-12-18T05:04:15;14.27;;;7.88;;
8825;SDS011;4449;50.872;4.714;2022-12-18T05:06:43;15.25;;;7.20;;
8825;SDS011;4449;50.872;4.714;2022-12-18T05:09:12;13.25;;;7.30;;
8825;SDS011;4449;50.872;4.714;2022-12-18T05:11:40;14.15;;;8.23;;
8825;SDS011;4449;50.872;4.714;2022-12-18T05:14:08;14.52;;;8.55;;
8825;SDS011;4449;50.872;4.714;2022-12-18T05:16:35;12.68;;;6.38;;
8825;SDS011;4449;50.872;4.714;2022-12-18T05:19:03;16.58;;;7.68;;
8825;SDS011;4449;50.872;4.714;2022-12-18T05:21:31;16.45;;;8.18;;
8825;SDS011;4449;50.872;4.714;2022-12-18T05:23:58;11.32;;;6.57;;
8825;SDS011;4449;50.872;4.714;2022-12-18T05:26:28;14.48;;;7.22;;
8825;SDS011;4449;50.872;4.714;2022-12-18T05:28:55;12.13;;;6.63;;
8825;SDS011;4449;50.872;4.714;2022-12-18T05:31:23;10.90;;;7.53;;
8825;SDS011;4449;50.872;4.714;2022-12-18T05:33:51;11.98;;;6.55;;
8825;SDS011;4449;50.872;4.714;2022-12-18T05:36:19;9.68;;;6.50;;
8825;SDS011;4449;50.872;4.714;2022-12-18T05:38:47;14.23;;;7.05;;
8825;SDS011;4449;50.872;4.714;2022-12-18T05:41:14;17.67;;;8.88;;
8825;SDS011;4449;50.872;4.714;2022-12-18T05:43:43;11.85;;;8.18;;
8825;SDS011;4449;50.872;4.714;2022-12-18T05:46:12;12.32;;;6.65;;
8825;SDS011;4449;50.872;4.714;2022-12-18T05:48:41;10.85;;;6.78;;
8825;SDS011;4449;50.872;4.714;2022-12-18T05:51:09;13.50;;;7.13;;
8825;SDS011;4449;50.872;4.714;2022-12-18T05:53:38;9.35;;;5.97;;
8825;SDS011;4449;50.872;4.714;2022-12-18T05:56:06;14.43;;;6.75;;
8825;SDS011;4449;50.872;4.714;2022-12-18T05:58:34;14.95;;;7.40;;
8825;SDS011;4449;50.872;4.714;2022-12-18T06:01:07;10.32;;;6.38;;
8825;SDS011;4449;50.872;4.714;2022-12-18T06:03:35;9.48;;;6.20;;
8825;SDS011;4449;50.872;4.714;2022-12-18T06:06:03;13.10;;;7.00;;
8825;SDS011;4449;50.872;4.714;2022-12-18T06:08:31;10.02;;;5.95;;
8825;SDS011;4449;50.872;4.714;2022-12-18T06:10:59;12.27;;;7.15;;
8825;SDS011;4449;50.872;4.714;2022-12-18T06:13:27;12.57;;;6.93;;
8825;SDS011;4449;50.872;4.714;2022-12-18T06:15:54;9.75;;;6.13;;
8825;SDS011;4449;50.872;4.714;2022-12-18T06:18:24;16.17;;;6.50;;
8825;SDS011;4449;50.872;4.714;2022-12-18T06:20:55;7.82;;;6.00;;
8825;SDS011;4449;50.872;4.714;2022-12-18T06:23:23;15.23;;;8.73;;
8825;SDS011;4449;50.872;4.714;2022-12-18T06:25:51;10.77;;;6.10;;
8825;SDS011;4449;50.872;4.714;2022-12-18T06:28:18;8.27;;;5.82;;
8825;SDS011;4449;50.872;4.714;2022-12-18T06:30:46;10.45;;;6.78;;
8825;SDS011;4449;50.872;4.714;2022-12-18T06:33:15;13.32;;;7.90;;
8825;SDS011;4449;50.872;4.714;2022-12-18T06:35:44;11.27;;;7.18;;
8825;SDS011;4449;50.872;4.714;2022-12-18T06:38:12;8.93;;;6.15;;
8825;SDS011;4449;50.872;4.714;2022-12-18T06:40:40;12.70;;;7.45;;
8825;SDS011;4449;50.872;4.714;2022-12-18T06:43:08;18.05;;;7.30;;
8825;SDS011;4449;50.872;4.714;2022-12-18T06:45:35;13.15;;;6.82;;
8825;SDS011;4449;50.872;4.714;2022-12-18T06:48:03;12.35;;;7.35;;
8825;SDS011;4449;50.872;4.714;2022-12-18T06:50:31;14.05;;;7.85;;
8825;SDS011;4449;50.872;4.714;2022-12-18T06:53:00;13.68;;;7.57;;
8825;SDS011;4449;50.872;4.714;2022-12-18T06:55:28;16.75;;;9.18;;
8825;SDS011;4449;50.872;4.714;2022-12-18T06:57:56;15.48;;;7.50;;
8825;SDS011;4449;50.872;4.714;2022-12-18T07:00:24;11.15;;;7.20;;
8825;SDS011;4449;50.872;4.714;2022-12-18T07:02:51;10.00;;;7.00;;
8825;SDS011;4449;50.872;4.714;2022-12-18T07:05:19;9.35;;;6.95;;
8825;SDS011;4449;50.872;4.714;2022-12-18T07:07:47;11.98;;;7.45;;
8825;SDS011;4449;50.872;4.714;2022-12-18T07:10:16;12.52;;;7.95;;
8825;SDS011;4449;50.872;4.714;2022-12-18T07:12:44;15.80;;;6.68;;
8825;SDS011;4449;50.872;4.714;2022-12-18T07:15:11;9.02;;;5.38;;
8825;SDS011;4449;50.872;4.714;2022-12-18T07:17:39;10.52;;;6.20;;
8825;SDS011;4449;50.872;4.714;2022-12-18T07:20:07;12.77;;;6.20;;
8825;SDS011;4449;50.872;4.714;2022-12-18T07:22:35;15.40;;;7.63;;
8825;SDS011;4449;50.872;4.714;2022-12-18T07:25:04;14.02;;;6.50;;
8825;SDS011;4449;50.872;4.714;2022-12-18T07:27:33;14.82;;;7.18;;
8825;SDS011;4449;50.872;4.714;2022-12-18T07:30:00;9.75;;;7.80;;
8825;SDS011;4449;50.872;4.714;2022-12-18T07:32:28;14.25;;;6.93;;
8825;SDS011;4449;50.872;4.714;2022-12-18T07:34:57;9.27;;;6.97;;
8825;SDS011;4449;50.872;4.714;2022-12-18T07:37:25;14.95;;;6.20;;
8825;SDS011;4449;50.872;4.714;2022-12-18T07:39:52;25.10;;;6.43;;
8825;SDS011;4449;50.872;4.714;2022-12-18T07:42:20;14.77;;;7.10;;
8825;SDS011;4449;50.872;4.714;2022-12-18T07:44:58;13.88;;;7.22;;
8825;SDS011;4449;50.872;4.714;2022-12-18T07:47:26;12.35;;;6.72;;
8825;SDS011;4449;50.872;4.714;2022-12-18T07:49:54;11.35;;;7.00;;
8825;SDS011;4449;50.872;4.714;2022-12-18T07:52:22;17.58;;;7.22;;
8825;SDS011;4449;50.872;4.714;2022-12-18T07:54:50;13.85;;;7.88;;
8825;SDS011;4449;50.872;4.714;2022-12-18T07:57:17;11.82;;;7.03;;
8825;SDS011;4449;50.872;4.714;2022-12-18T07:59:45;17.00;;;6.35;;
8825;SDS011;4449;50.872;4.714;2022-12-18T08:02:14;12.10;;;6.72;;
8825;SDS011;4449;50.872;4.714;2022-12-18T08:04:42;13.65;;;5.78;;
8825;SDS011;4449;50.872;4.714;2022-12-18T08:07:10;13.57;;;7.13;;
8825;SDS011;4449;50.872;4.714;2022-12-18T08:09:37;10.05;;;5.80;;
8825;SDS011;4449;50.872;4.714;2022-12-18T08:12:05;13.45;;;6.43;;
8825;SDS011;4449;50.872;4.714;2022-12-18T08:14:33;14.88;;;7.75;;
8825;SDS011;4449;50.872;4.714;2022-12-18T08:17:01;10.82;;;6.35;;
8825;SDS011;4449;50.872;4.714;2022-12-18T08:19:30;14.52;;;7.03;;
8825;SDS011;4449;50.872;4.714;2022-12-18T08:21:58;9.57;;;6.10;;
8825;SDS011;4449;50.872;4.714;2022-12-18T08:24:26;13.13;;;5.90;;
8825;SDS011;4449;50.872;4.714;2022-12-18T08:26:53;11.30;;;7.53;;
8825;SDS011;4449;50.872;4.714;2022-12-18T08:29:22;10.88;;;6.18;;
8825;SDS011;4449;50.872;4.714;2022-12-18T08:31:50;16.80;;;7.53;;
8825;SDS011;4449;50.872;4.714;2022-12-18T08:34:18;11.70;;;6.03;;
8825;SDS011;4449;50.872;4.714;2022-12-18T08:36:47;9.55;;;6.85;;
8825;SDS011;4449;50.872;4.714;2022-12-18T08:39:15;12.50;;;6.85;;
8825;SDS011;4449;50.872;4.714;2022-12-18T08:41:42;11.65;;;6.28;;
8825;SDS011;4449;50.872;4.714;2022-12-18T08:44:30;13.63;;;8.68;;
8825;SDS011;4449;50.872;4.714;2022-12-18T08:47:03;11.45;;;6.28;;
8825;SDS011;4449;50.872;4.714;2022-12-18T08:49:31;8.02;;;6.07;;
8825;SDS011;4449;50.872;4.714;2022-12-18T08:52:01;14.10;;;7.40;;
8825;SDS011;4449;50.872;4.714;2022-12-18T08:54:29;10.35;;;5.97;;
8825;SDS011;4449;50.872;4.714;2022-12-18T08:56:57;12.38;;;7.55;;
8825;SDS011;4449;50.872;4.714;2022-12-18T08:59:24;11.95;;;6.70;;
8825;SDS011;4449;50.872;4.714;2022-12-18T09:01:53;16.10;;;6.75;;
8825;SDS011;4449;50.872;4.714;2022-12-18T09:04:20;14.57;;;6.75;;
8825;SDS011;4449;50.872;4.714;2022-12-18T09:06:49;30.17;;;7.63;;
8825;SDS011;4449;50.872;4.714;2022-12-18T09:09:18;12.57;;;6.38;;
8825;SDS011;4449;50.872;4.714;2022-12-18T09:11:46;10.73;;;6.13;;
8825;SDS011;4449;50.872;4.714;2022-12-18T09:14:14;13.85;;;7.57;;
8825;SDS011;4449;50.872;4.714;2022-12-18T09:16:42;11.82;;;6.57;;
8825;SDS011;4449;50.872;4.714;2022-12-18T09:19:09;12.10;;;6.85;;
8825;SDS011;4449;50.872;4.714;2022-12-18T09:21:37;11.02;;;6.65;;
8825;SDS011;4449;50.872;4.714;2022-12-18T09:24:05;20.40;;;6.90;;
8825;SDS011;4449;50.872;4.714;2022-12-18T09:26:35;17.73;;;7.47;;
8825;SDS011;4449;50.872;4.714;2022-12-18T09:29:03;10.55;;;6.53;;
8825;SDS011;4449;50.872;4.714;2022-12-18T09:31:32;8.48;;;5.32;;
8825;SDS011;4449;50.872;4.714;2022-12-18T09:34:00;9.88;;;6.03;;
8825;SDS011;4449;50.872;4.714;2022-12-18T09:36:28;11.23;;;6.35;;
8825;SDS011;4449;50.872;4.714;2022-12-18T09:38:56;10.82;;;7.18;;
8825;SDS011;4449;50.872;4.714;2022-12-18T09:41:30;13.80;;;6.70;;
8825;SDS011;4449;50.872;4.714;2022-12-18T10:41:47;7.45;;;4.88;;
8825;SDS011;4449;50.872;4.714;2022-12-18T10:44:16;11.25;;;5.45;;
8825;SDS011;4449;50.872;4.714;2022-12-18T10:46:44;9.68;;;5.10;;
8825;SDS011;4449;50.872;4.714;2022-12-18T10:49:19;9.10;;;5.32;;
8825;SDS011;4449;50.872;4.714;2022-12-18T10:51:48;9.70;;;5.50;;
8825;SDS011;4449;50.872;4.714;2022-12-18T10:54:17;11.93;;;6.38;;
8825;SDS011;4449;50.872;4.714;2022-12-18T10:56:45;12.25;;;5.80;;
8825;SDS011;4449;50.872;4.714;2022-12-18T10:59:14;9.25;;;5.75;;
8825;SDS011;4449;50.872;4.714;2022-12-18T11:01:49;9.80;;;5.50;;
8825;SDS011;4449;50.872;4.714;2022-12-18T11:04:18;9.60;;;5.57;;
8825;SDS011;4449;50.872;4.714;2022-12-18T11:06:54;9.27;;;5.55;;
8825;SDS011;4449;50.872;4.714;2022-12-18T11:09:23;10.07;;;6.28;;
8825;SDS011;4449;50.872;4.714;2022-12-18T11:11:50;9.52;;;6.28;;
8825;SDS011;4449;50.872;4.714;2022-12-18T11:14:21;9.20;;;5.95;;
8825;SDS011;4449;50.872;4.714;2022-12-18T11:16:50;9.45;;;5.32;;
8825;SDS011;4449;50.872;4.714;2022-12-18T11:19:25;6.05;;;5.50;;
8825;SDS011;4449;50.872;4.714;2022-12-18T11:21:53;9.13;;;5.65;;
8825;SDS011;4449;50.872;4.714;2022-12-18T11:24:22;10.23;;;6.32;;
8825;SDS011;4449;50.872;4.714;2022-12-18T11:26:53;9.85;;;6.32;;
8825;SDS011;4449;50.872;4.714;2022-12-18T11:29:31;11.23;;;5.40;;
8825;SDS011;4449;50.872;4.714;2022-12-18T11:32:20;9.63;;;6.28;;
8825;SDS011;4449;50.872;4.714;2022-12-18T11:34:51;12.43;;;7.25;;
8825;SDS011;4449;50.872;4.714;2022-12-18T11:37:21;10.95;;;6.00;;
8825;SDS011;4449;50.872;4.714;2022-12-18T11:39:50;12.90;;;7.30;;
8825;SDS011;4449;50.872;4.714;2022-12-18T11:42:20;12.35;;;7.00;;
8825;SDS011;4449;50.872;4.714;2022-12-18T11:44:52;10.63;;;6.60;;
8825;SDS011;4449;50.872;4.714;2022-12-18T11:47:24;9.88;;;6.63;;
8825;SDS011;4449;50.872;4.714;2022-12-18T11:49:55;13.82;;;6.75;;
8825;SDS011;4449;50.872;4.714;2022-12-18T11:52:23;12.55;;;6.50;;
8825;SDS011;4449;50.872;4.714;2022-12-18T11:54:52;13.48;;;7.32;;
8825;SDS011;4449;50.872;4.714;2022-12-18T11:57:24;14.48;;;6.30;;
8825;SDS011;4449;50.872;4.714;2022-12-18T11:59:59;13.60;;;7.18;;
8825;SDS011;4449;50.872;4.714;2022-12-18T12:02:40;14.18;;;7.35;;
8825;SDS011;4449;50.872;4.714;2022-12-18T12:07:54;12.75;;;8.00;;
8825;SDS011;4449;50.872;4.714;2022-12-18T12:10:29;9.05;;;6.20;;
8825;SDS011;4449;50.872;4.714;2022-12-18T12:13:04;14.60;;;7.20;;
8825;SDS011;4449;50.872;4.714;2022-12-18T12:15:37;13.00;;;7.88;;
8825;SDS011;4449;50.872;4.714;2022-12-18T12:18:08;12.60;;;7.47;;
8825;SDS011;4449;50.872;4.714;2022-12-18T12:20:43;12.50;;;6.82;;
8825;SDS011;4449;50.872;4.714;2022-12-18T12:23:14;12.57;;;7.72;;
8825;SDS011;4449;50.872;4.714;2022-12-18T12:25:46;10.93;;;7.15;;
8825;SDS011;4449;50.872;4.714;2022-12-18T12:28:20;13.43;;;7.03;;
8825;SDS011;4449;50.872;4.714;2022-12-18T12:30:52;10.75;;;6.80;;
8825;SDS011;4449;50.872;4.714;2022-12-18T12:33:26;11.02;;;7.47;;
8825;SDS011;4449;50.872;4.714;2022-12-18T12:35:58;12.10;;;6.95;;
8825;SDS011;4449;50.872;4.714;2022-12-18T12:38:28;15.77;;;7.78;;
8825;SDS011;4449;50.872;4.714;2022-12-18T12:40:58;16.52;;;7.82;;
8825;SDS011;4449;50.872;4.714;2022-12-18T12:43:29;13.10;;;6.53;;
8825;SDS011;4449;50.872;4.714;2022-12-18T12:45:59;9.50;;;7.63;;
8825;SDS011;4449;50.872;4.714;2022-12-18T12:48:33;12.73;;;7.97;;
8825;SDS011;4449;50.872;4.714;2022-12-18T12:51:02;11.52;;;7.35;;
8825;SDS011;4449;50.872;4.714;2022-12-18T12:53:32;12.43;;;7.63;;
8825;SDS011;4449;50.872;4.714;2022-12-18T12:56:02;9.65;;;7.40;;
8825;SDS011;4449;50.872;4.714;2022-12-18T12:58:32;12.93;;;7.30;;
8825;SDS011;4449;50.872;4.714;2022-12-18T13:01:05;9.43;;;6.35;;
8825;SDS011;4449;50.872;4.714;2022-12-18T13:03:41;16.95;;;7.15;;
8825;SDS011;4449;50.872;4.714;2022-12-18T13:06:10;11.88;;;6.80;;
8825;SDS011;4449;50.872;4.714;2022-12-18T13:08:51;13.70;;;8.05;;
8825;SDS011;4449;50.872;4.714;2022-12-18T13:11:28;11.60;;;7.00;;
8825;SDS011;4449;50.872;4.714;2022-12-18T13:14:19;14.85;;;7.47;;
8825;SDS011;4449;50.872;4.714;2022-12-18T13:16:49;8.90;;;7.03;;
8825;SDS011;4449;50.872;4.714;2022-12-18T13:19:23;14.40;;;7.60;;
8825;SDS011;4449;50.872;4.714;2022-12-18T13:21:53;12.68;;;7.80;;
8825;SDS011;4449;50.872;4.714;2022-12-18T13:24:23;10.32;;;5.80;;
8825;SDS011;4449;50.872;4.714;2022-12-18T13:26:52;39.35;;;17.65;;
8825;SDS011;4449;50.872;4.714;2022-12-18T13:32:10;12.43;;;7.18;;
8825;SDS011;4449;50.872;4.714;2022-12-18T13:34:46;12.23;;;7.05;;
8825;SDS011;4449;50.872;4.714;2022-12-18T13:40:00;14.27;;;7.72;;
8825;SDS011;4449;50.872;4.714;2022-12-18T13:48:21;9.98;;;6.72;;
8825;SDS011;4449;50.872;4.714;2022-12-18T13:50:55;13.18;;;7.55;;
8825;SDS011;4449;50.872;4.714;2022-12-18T13:53:25;16.30;;;8.75;;
8825;SDS011;4449;50.872;4.714;2022-12-18T13:55:54;17.73;;;8.88;;
8825;SDS011;4449;50.872;4.714;2022-12-18T13:58:21;13.77;;;8.38;;
8825;SDS011;4449;50.872;4.714;2022-12-18T14:00:49;13.40;;;7.43;;
8825;SDS011;4449;50.872;4.714;2022-12-18T14:03:22;14.45;;;8.05;;
8825;SDS011;4449;50.872;4.714;2022-12-18T14:05:53;12.75;;;6.97;;
8825;SDS011;4449;50.872;4.714;2022-12-18T14:08:29;12.55;;;7.93;;
8825;SDS011;4449;50.872;4.714;2022-12-18T14:10:59;14.23;;;8.30;;
8825;SDS011;4449;50.872;4.714;2022-12-18T14:13:29;14.98;;;8.27;;
8825;SDS011;4449;50.872;4.714;2022-12-18T14:16:00;16.40;;;9.88;;
8825;SDS011;4449;50.872;4.714;2022-12-18T14:18:31;15.90;;;8.85;;
8825;SDS011;4449;50.872;4.714;2022-12-18T14:21:00;21.30;;;10.27;;
8825;SDS011;4449;50.872;4.714;2022-12-18T14:23:29;15.02;;;8.07;;
8825;SDS011;4449;50.872;4.714;2022-12-18T14:25:57;19.92;;;9.63;;
8825;SDS011;4449;50.872;4.714;2022-12-18T14:28:25;14.55;;;8.20;;
8825;SDS011;4449;50.872;4.714;2022-12-18T14:30:53;16.65;;;8.55;;
8825;SDS011;4449;50.872;4.714;2022-12-18T14:33:22;15.80;;;9.27;;
8825;SDS011;4449;50.872;4.714;2022-12-18T14:35:56;19.00;;;10.98;;
8825;SDS011;4449;50.872;4.714;2022-12-18T14:38:27;13.77;;;8.68;;
8825;SDS011;4449;50.872;4.714;2022-12-18T14:40:56;14.68;;;8.98;;
8825;SDS011;4449;50.872;4.714;2022-12-18T14:43:24;14.23;;;8.50;;
8825;SDS011;4449;50.872;4.714;2022-12-18T14:45:51;20.02;;;8.88;;
8825;SDS011;4449;50.872;4.714;2022-12-18T14:48:20;16.60;;;8.35;;
8825;SDS011;4449;50.872;4.714;2022-12-18T14:50:54;14.93;;;8.68;;
8825;SDS011;4449;50.872;4.714;2022-12-18T14:53:32;14.55;;;8.00;;
8825;SDS011;4449;50.872;4.714;2022-12-18T14:56:00;14.07;;;8.80;;
8825;SDS011;4449;50.872;4.714;2022-12-18T14:58:28;13.30;;;7.63;;
8825;SDS011;4449;50.872;4.714;2022-12-18T15:00:56;16.35;;;8.52;;
8825;SDS011;4449;50.872;4.714;2022-12-18T15:03:24;11.45;;;7.85;;
8825;SDS011;4449;50.872;4.714;2022-12-18T15:05:52;10.60;;;7.50;;
8825;SDS011;4449;50.872;4.714;2022-12-18T15:08:35;13.02;;;7.82;;
8825;SDS011;4449;50.872;4.714;2022-12-18T15:13:46;18.38;;;9.18;;
8825;SDS011;4449;50.872;4.714;2022-12-18T15:16:14;12.85;;;8.48;;
8825;SDS011;4449;50.872;4.714;2022-12-18T15:18:42;20.27;;;8.82;;
8825;SDS011;4449;50.872;4.714;2022-12-18T15:21:15;11.73;;;7.95;;
8825;SDS011;4449;50.872;4.714;2022-12-18T15:23:47;16.17;;;8.20;;
8825;SDS011;4449;50.872;4.714;2022-12-18T15:26:15;14.30;;;8.20;;
8825;SDS011;4449;50.872;4.714;2022-12-18T15:28:44;17.35;;;9.75;;
8825;SDS011;4449;50.872;4.714;2022-12-18T15:31:23;16.05;;;8.50;;
8825;SDS011;4449;50.872;4.714;2022-12-18T15:34:10;22.58;;;8.13;;
8825;SDS011;4449;50.872;4.714;2022-12-18T15:36:39;15.27;;;8.93;;
8825;SDS011;4449;50.872;4.714;2022-12-18T15:39:11;15.90;;;8.98;;
8825;SDS011;4449;50.872;4.714;2022-12-18T15:41:39;18.00;;;9.25;;
8825;SDS011;4449;50.872;4.714;2022-12-18T15:44:26;14.15;;;7.80;;
8825;SDS011;4449;50.872;4.714;2022-12-18T15:46:53;14.88;;;8.85;;
8825;SDS011;4449;50.872;4.714;2022-12-18T15:49:21;17.15;;;9.30;;
8825;SDS011;4449;50.872;4.714;2022-12-18T15:51:49;22.45;;;8.82;;
8825;SDS011;4449;50.872;4.714;2022-12-18T15:54:20;17.33;;;9.45;;
8825;SDS011;4449;50.872;4.714;2022-12-18T15:57:09;15.20;;;8.88;;
8825;SDS011;4449;50.872;4.714;2022-12-18T15:59:49;16.30;;;8.75;;
8825;SDS011;4449;50.872;4.714;2022-12-18T16:02:18;16.25;;;9.00;;
8825;SDS011;4449;50.872;4.714;2022-12-18T16:04:45;17.63;;;9.25;;
8825;SDS011;4449;50.872;4.714;2022-12-18T16:07:13;17.08;;;9.63;;
8825;SDS011;4449;50.872;4.714;2022-12-18T16:09:42;22.13;;;10.27;;
8825;SDS011;4449;50.872;4.714;2022-12-18T16:12:17;21.45;;;9.93;;
8825;SDS011;4449;50.872;4.714;2022-12-18T16:14:46;18.08;;;9.70;;
8825;SDS011;4449;50.872;4.714;2022-12-18T16:17:14;18.80;;;9.27;;
8825;SDS011;4449;50.872;4.714;2022-12-18T16:19:41;21.35;;;10.23;;
8825;SDS011;4449;50.872;4.714;2022-12-18T16:22:14;19.88;;;10.07;;
8825;SDS011;4449;50.872;4.714;2022-12-18T16:24:45;20.80;;;9.75;;
8825;SDS011;4449;50.872;4.714;2022-12-18T16:27:12;16.77;;;8.27;;
8825;SDS011;4449;50.872;4.714;2022-12-18T16:29:40;21.15;;;9.90;;
8825;SDS011;4449;50.872;4.714;2022-12-18T16:32:08;21.00;;;9.88;;